Time;durP1;ratioP1;P1;durP2;ratioP2;P2;SDS_P1;SDS_P2;PMS_P1;PMS_P2;Temp;Humidity;BMP_temperature;BMP_pressure;BME280_temperature;BME280_humidity;BME280_pressure;Samples;Min_cycle;Max_cycle;Signal;HPM_P1;HPM_P2
2023/01/10 00:02:09;;;;;;;6.50;1.73;;;;;;;;;;5056376;28;20111;-82
2023/01/10 00:04:35;;;;;;;4.30;1.35;;;;;;;;;;5056005;28;20024;-81
2023/01/10 00:07:00;;;;;;;5.28;1.60;;;;;;;;;;5055936;28;20062;-81
2023/01/10 00:09:26;;;;;;;4.93;1.50;;;;;;;;;;5073960;28;20070;-81
2023/01/10 00:14:35;;;;;;;4.97;1.77;;;;;;;;;;5058562;28;20125;-81
2023/01/10 00:17:02;;;;;;;6.53;1.48;;;;;;;;;;5073720;28;20033;-81
2023/01/10 00:19:27;;;;;;;3.72;1.50;;;;;;;;;;5073727;28;20063;-80
2023/01/10 00:21:53;;;;;;;2.90;1.38;;;;;;;;;;5055729;28;20048;-80
2023/01/10 00:24:19;;;;;;;4.43;1.33;;;;;;;;;;5073489;28;20013;-80
2023/01/10 00:26:49;;;;;;;4.10;1.52;;;;;;;;;;5055701;28;20111;-80
2023/01/10 00:29:18;;;;;;;3.35;1.60;;;;;;;;;;5056196;28;20053;-80
2023/01/10 00:31:44;;;;;;;5.22;1.65;;;;;;;;;;5055616;28;20552;-80
2023/01/10 00:34:09;;;;;;;3.83;1.45;;;;;;;;;;5073471;28;20025;-80
2023/01/10 00:36:35;;;;;;;8.18;2.17;;;;;;;;;;5073775;28;20024;-81
2023/01/10 00:39:00;;;;;;;7.35;2.25;;;;;;;;;;5055911;28;20033;-81
2023/01/10 00:44:09;;;;;;;3.22;1.50;;;;;;;;;;5073604;28;20103;-80
2023/01/10 00:46:35;;;;;;;7.38;1.83;;;;;;;;;;5073390;28;20052;-80
2023/01/10 00:49:00;;;;;;;4.75;1.33;;;;;;;;;;5073065;28;20057;-80
2023/01/10 00:51:26;;;;;;;5.50;1.50;;;;;;;;;;5073200;28;20081;-82
2023/01/10 00:53:51;;;;;;;7.93;1.83;;;;;;;;;;5073131;28;20047;-81
2023/01/10 00:56:17;;;;;;;4.72;1.48;;;;;;;;;;5055455;28;20036;-80
2023/01/10 00:58:43;;;;;;;3.33;1.38;;;;;;;;;;5055598;28;20032;-81
2023/01/10 01:01:09;;;;;;;4.70;1.50;;;;;;;;;;5073271;28;20552;-80
2023/01/10 01:03:34;;;;;;;7.28;1.65;;;;;;;;;;5073227;28;20052;-80
2023/01/10 01:06:04;;;;;;;5.95;2.10;;;;;;;;;;5055557;28;20034;-81
2023/01/10 01:08:30;;;;;;;5.30;1.77;;;;;;;;;;5055827;28;20058;-81
2023/01/10 01:10:56;;;;;;;5.40;1.90;;;;;;;;;;5038818;28;20029;-81
2023/01/10 01:13:21;;;;;;;4.35;1.60;;;;;;;;;;5072743;28;20120;-81
2023/01/10 01:15:47;;;;;;;4.28;1.63;;;;;;;;;;5072829;28;20064;-81
2023/01/10 01:18:15;;;;;;;7.18;1.48;;;;;;;;;;5055284;28;20437;-81
2023/01/10 01:20:41;;;;;;;2.97;1.65;;;;;;;;;;5038509;28;20066;-81
2023/01/10 01:23:06;;;;;;;3.85;1.30;;;;;;;;;;5038670;28;20425;-81
2023/01/10 01:25:32;;;;;;;5.43;1.95;;;;;;;;;;5073036;28;20033;-81
2023/01/10 01:27:57;;;;;;;3.38;1.50;;;;;;;;;;5072819;28;20032;-81
2023/01/10 01:30:23;;;;;;;6.05;1.90;;;;;;;;;;5054732;28;20085;-80
2023/01/10 01:32:48;;;;;;;5.03;1.60;;;;;;;;;;5072670;28;20468;-81
2023/01/10 01:35:14;;;;;;;4.07;1.80;;;;;;;;;;5038253;28;20032;-81
2023/01/10 01:37:40;;;;;;;6.38;1.90;;;;;;;;;;5072627;28;20073;-81
2023/01/10 01:40:07;;;;;;;6.88;1.42;;;;;;;;;;5054820;28;20479;-81
2023/01/10 01:42:33;;;;;;;5.20;1.58;;;;;;;;;;5055073;28;20499;-80
2023/01/10 01:45:08;;;;;;;4.50;1.50;;;;;;;;;;5054901;28;20135;-80
2023/01/10 01:47:40;;;;;;;4.82;1.60;;;;;;;;;;5072529;28;20028;-80
2023/01/10 01:50:25;;;;;;;5.32;1.77;;;;;;;;;;5054755;28;20364;-81
2023/01/10 01:52:53;;;;;;;6.68;1.45;;;;;;;;;;5072535;28;20017;-81
2023/01/10 01:55:18;;;;;;;4.43;1.60;;;;;;;;;;5054934;28;20455;-81
2023/01/10 01:57:45;;;;;;;5.43;1.58;;;;;;;;;;5054549;28;20123;-81
2023/01/10 02:00:11;;;;;;;3.47;1.40;;;;;;;;;;5075151;28;20032;-80
2023/01/10 02:02:42;;;;;;;4.63;1.60;;;;;;;;;;5041661;28;20051;-81
2023/01/10 02:05:09;;;;;;;6.85;1.70;;;;;;;;;;5076667;28;20028;-81
2023/01/10 02:07:36;;;;;;;3.85;1.58;;;;;;;;;;5058216;28;20467;-81
2023/01/10 02:10:09;;;;;;;7.88;2.08;;;;;;;;;;5041468;28;20478;-81
2023/01/10 02:12:35;;;;;;;8.13;2.40;;;;;;;;;;5058149;28;20103;-81
2023/01/10 02:15:01;;;;;;;2.85;1.38;;;;;;;;;;5058030;28;20111;-80
2023/01/10 02:17:26;;;;;;;4.25;1.45;;;;;;;;;;5058608;28;20053;-80
2023/01/10 02:19:53;;;;;;;3.83;1.40;;;;;;;;;;5076344;28;20028;-80
2023/01/10 02:22:49;;;;;;;4.03;1.67;;;;;;;;;;5076155;28;20103;-80
2023/01/10 02:25:56;;;;;;;5.25;1.60;;;;;;;;;;5075723;28;20514;-80
2023/01/10 02:28:45;;;;;;;4.32;1.55;;;;;;;;;;5058005;28;20021;-80
2023/01/10 02:31:39;;;;;;;4.07;1.15;;;;;;;;;;5075632;28;20086;-80
2023/01/10 02:34:21;;;;;;;6.63;1.43;;;;;;;;;;5041131;28;20024;-81
2023/01/10 02:36:54;;;;;;;6.45;1.98;;;;;;;;;;5075573;28;20021;-81
2023/01/10 02:39:24;;;;;;;7.35;2.03;;;;;;;;;;5075856;28;20040;-81
2023/01/10 02:41:58;;;;;;;2.90;1.38;;;;;;;;;;5075642;28;20070;-81
2023/01/10 02:44:40;;;;;;;3.47;1.52;;;;;;;;;;5057662;28;20099;-81
2023/01/10 02:47:07;;;;;;;3.45;1.50;;;;;;;;;;5057867;28;20028;-81
2023/01/10 02:49:49;;;;;;;3.17;1.60;;;;;;;;;;5075503;28;20051;-80
2023/01/10 02:52:20;;;;;;;5.10;1.52;;;;;;;;;;5075411;28;20021;-80
2023/01/10 02:54:46;;;;;;;6.35;1.70;;;;;;;;;;5057808;28;20037;-80
2023/01/10 02:57:33;;;;;;;2.88;1.30;;;;;;;;;;5075880;28;20116;-80
2023/01/10 03:00:13;;;;;;;4.70;1.73;;;;;;;;;;5075524;28;20475;-81
2023/01/10 03:03:00;;;;;;;5.00;1.40;;;;;;;;;;5075338;28;20025;-81
2023/01/10 03:05:38;;;;;;;4.75;1.52;;;;;;;;;;5075254;28;20013;-80
2023/01/10 03:08:24;;;;;;;4.50;1.55;;;;;;;;;;5057561;28;20037;-80
2023/01/10 03:11:00;;;;;;;6.85;1.60;;;;;;;;;;5055744;28;20055;-81
2023/01/10 03:13:47;;;;;;;4.32;1.58;;;;;;;;;;5074614;28;20127;-81
2023/01/10 03:16:16;;;;;;;4.75;1.88;;;;;;;;;;5056650;28;20036;-81
2023/01/10 03:18:52;;;;;;;3.38;1.65;;;;;;;;;;5056784;28;20109;-81
2023/01/10 03:21:19;;;;;;;5.40;1.75;;;;;;;;;;5040058;28;20499;-81
2023/01/10 03:23:46;;;;;;;5.57;1.70;;;;;;;;;;5074576;28;20332;-81
2023/01/10 03:26:12;;;;;;;4.55;1.48;;;;;;;;;;5056582;28;20097;-81
2023/01/10 03:28:44;;;;;;;5.63;1.80;;;;;;;;;;5056912;28;20491;-81
2023/01/10 03:31:41;;;;;;;4.25;1.95;;;;;;;;;;5056716;28;20024;-81
2023/01/10 03:34:07;;;;;;;3.72;1.63;;;;;;;;;;5071054;28;20032;-80
2023/01/10 03:36:49;;;;;;;4.95;1.70;;;;;;;;;;5056795;28;20074;-81
2023/01/10 03:39:31;;;;;;;6.80;1.60;;;;;;;;;;5075233;28;20482;-81
2023/01/10 03:42:24;;;;;;;3.85;1.70;;;;;;;;;;5056458;28;20028;-81
2023/01/10 03:45:01;;;;;;;5.53;1.60;;;;;;;;;;5074175;28;20020;-81
2023/01/10 03:47:35;;;;;;;7.32;1.67;;;;;;;;;;5074020;28;20033;-81
2023/01/10 03:50:17;;;;;;;5.57;1.77;;;;;;;;;;5056135;28;20480;-81
2023/01/10 03:52:43;;;;;;;4.55;1.55;;;;;;;;;;5073989;28;20032;-80
2023/01/10 03:55:14;;;;;;;5.80;1.80;;;;;;;;;;5072612;28;20032;-81
2023/01/10 03:57:47;;;;;;;4.70;1.75;;;;;;;;;;5073007;28;20027;-81
2023/01/10 04:00:14;;;;;;;6.17;2.07;;;;;;;;;;5056758;28;20143;-80
2023/01/10 04:02:40;;;;;;;4.45;1.35;;;;;;;;;;5039107;28;20265;-81
2023/01/10 04:05:05;;;;;;;8.75;1.70;;;;;;;;;;5055828;28;20029;-81
2023/01/10 04:07:31;;;;;;;7.20;1.70;;;;;;;;;;5056160;28;20032;-81
2023/01/10 04:09:56;;;;;;;3.55;1.30;;;;;;;;;;5055971;28;20032;-81
2023/01/10 04:12:22;;;;;;;5.18;1.90;;;;;;;;;;5056032;28;20438;-81
2023/01/10 04:14:48;;;;;;;4.57;1.88;;;;;;;;;;5055498;28;20048;-81
2023/01/10 04:17:15;;;;;;;5.03;1.50;;;;;;;;;;5039000;28;20119;-81
2023/01/10 04:19:40;;;;;;;4.10;1.63;;;;;;;;;;5055585;28;20021;-80
2023/01/10 04:22:06;;;;;;;2.33;1.27;;;;;;;;;;5073407;28;20489;-81
2023/01/10 04:24:31;;;;;;;5.82;2.30;;;;;;;;;;5073446;28;20024;-81
2023/01/10 04:26:57;;;;;;;3.58;1.40;;;;;;;;;;5073266;28;20188;-81
2023/01/10 04:29:22;;;;;;;4.45;1.30;;;;;;;;;;5073308;28;20028;-81
2023/01/10 04:31:48;;;;;;;6.35;1.73;;;;;;;;;;5073266;28;20437;-81
2023/01/10 04:34:14;;;;;;;4.72;1.80;;;;;;;;;;5055487;28;20058;-81
2023/01/10 04:36:39;;;;;;;4.40;1.45;;;;;;;;;;5055427;28;20368;-80
2023/01/10 04:39:05;;;;;;;6.30;1.42;;;;;;;;;;5056005;28;20029;-80
2023/01/10 04:41:30;;;;;;;4.68;1.60;;;;;;;;;;5055562;28;20028;-80
2023/01/10 04:43:56;;;;;;;5.75;1.77;;;;;;;;;;5073332;28;20025;-80
2023/01/10 04:46:21;;;;;;;6.57;1.60;;;;;;;;;;5055425;28;20510;-80
2023/01/10 04:48:47;;;;;;;3.75;1.50;;;;;;;;;;5073054;28;20134;-79
2023/01/10 04:51:12;;;;;;;7.35;1.55;;;;;;;;;;5073406;28;20037;-79
2023/01/10 04:53:37;;;;;;;5.85;1.77;;;;;;;;;;5055297;28;20037;-79
2023/01/10 04:56:05;;;;;;;4.00;1.80;;;;;;;;;;5054953;28;20074;-79
2023/01/10 04:58:37;;;;;;;7.63;2.00;;;;;;;;;;5055312;28;20056;-79
2023/01/10 05:01:10;;;;;;;3.65;1.90;;;;;;;;;;5072987;28;20085;-80
2023/01/10 05:03:36;;;;;;;5.38;1.65;;;;;;;;;;5038618;28;20040;-80
2023/01/10 05:06:01;;;;;;;9.55;2.30;;;;;;;;;;5038577;28;20086;-80
2023/01/10 05:08:27;;;;;;;6.68;1.83;;;;;;;;;;5055592;28;20028;-80
2023/01/10 05:10:52;;;;;;;4.28;1.30;;;;;;;;;;5055398;28;20025;-80
2023/01/10 05:13:17;;;;;;;3.65;1.50;;;;;;;;;;5055444;28;20072;-80
2023/01/10 05:15:43;;;;;;;4.38;1.67;;;;;;;;;;5055190;28;20119;-80
2023/01/10 05:18:08;;;;;;;6.00;1.73;;;;;;;;;;5073072;28;20028;-80
2023/01/10 05:20:33;;;;;;;5.03;1.80;;;;;;;;;;5073422;28;20033;-80
2023/01/10 05:22:59;;;;;;;6.65;2.08;;;;;;;;;;5073272;28;20040;-80
2023/01/10 05:25:24;;;;;;;9.38;2.35;;;;;;;;;;5073055;28;20082;-80
2023/01/10 05:27:49;;;;;;;6.20;2.03;;;;;;;;;;5073158;28;20039;-80
2023/01/10 05:30:15;;;;;;;6.18;1.73;;;;;;;;;;5055426;28;20062;-79
2023/01/10 05:32:40;;;;;;;4.32;1.80;;;;;;;;;;5073038;28;20025;-83
2023/01/10 05:35:06;;;;;;;9.13;2.10;;;;;;;;;;5056361;28;20024;-80
2023/01/10 05:37:32;;;;;;;11.45;3.70;;;;;;;;;;5076524;28;20039;-81
2023/01/10 05:39:57;;;;;;;9.25;2.75;;;;;;;;;;5075134;28;20134;-81
2023/01/10 05:42:22;;;;;;;12.35;2.92;;;;;;;;;;5076279;28;20025;-80
2023/01/10 05:44:48;;;;;;;8.93;3.10;;;;;;;;;;5076164;28;20502;-80
2023/01/10 05:47:13;;;;;;;8.00;2.47;;;;;;;;;;5058212;28;20036;-80
2023/01/10 05:49:38;;;;;;;7.07;2.10;;;;;;;;;;5075990;28;20115;-80
2023/01/10 05:52:04;;;;;;;6.05;1.65;;;;;;;;;;5075976;28;20070;-80
2023/01/10 05:54:29;;;;;;;5.32;2.10;;;;;;;;;;5076277;28;20074;-82
2023/01/10 05:56:55;;;;;;;8.82;2.10;;;;;;;;;;5058087;28;20028;-82
2023/01/10 05:59:20;;;;;;;5.57;2.05;;;;;;;;;;5038428;28;20044;-84
2023/01/10 06:01:46;;;;;;;8.23;2.35;;;;;;;;;;5071743;28;20033;-83
2023/01/10 06:04:11;;;;;;;7.90;2.22;;;;;;;;;;5075997;28;20056;-83
2023/01/10 06:06:36;;;;;;;10.55;2.80;;;;;;;;;;5076088;28;20082;-84
2023/01/10 06:09:02;;;;;;;7.88;2.65;;;;;;;;;;5058261;28;20402;-82
2023/01/10 06:11:30;;;;;;;12.80;2.45;;;;;;;;;;5075747;28;20041;-81
2023/01/10 06:13:57;;;;;;;9.07;2.78;;;;;;;;;;5051054;28;20052;-81
2023/01/10 06:16:22;;;;;;;10.25;2.60;;;;;;;;;;5037884;28;20033;-78
2023/01/10 06:18:48;;;;;;;6.40;2.20;;;;;;;;;;5055579;28;20395;-80
2023/01/10 06:21:13;;;;;;;12.52;2.47;;;;;;;;;;5039133;28;20041;-79
2023/01/10 06:23:39;;;;;;;9.48;2.60;;;;;;;;;;5056128;28;20028;-79
2023/01/10 06:26:04;;;;;;;9.05;2.80;;;;;;;;;;5038288;28;20434;-80
2023/01/10 06:28:30;;;;;;;6.45;2.45;;;;;;;;;;5056035;28;20490;-79
2023/01/10 06:30:55;;;;;;;10.05;2.45;;;;;;;;;;5038809;28;20079;-79
2023/01/10 06:33:20;;;;;;;9.30;2.35;;;;;;;;;;5055838;28;20033;-79
2023/01/10 06:35:47;;;;;;;8.52;2.72;;;;;;;;;;5056199;28;20032;-79
2023/01/10 06:38:13;;;;;;;7.47;2.08;;;;;;;;;;5038607;28;20079;-79
2023/01/10 06:40:38;;;;;;;6.05;2.22;;;;;;;;;;5038083;28;20036;-79
2023/01/10 06:43:04;;;;;;;9.65;2.30;;;;;;;;;;5055924;28;20029;-79
2023/01/10 06:45:29;;;;;;;7.15;2.20;;;;;;;;;;5055437;28;20029;-79
2023/01/10 06:47:54;;;;;;;7.38;2.00;;;;;;;;;;5038260;28;20108;-80
2023/01/10 06:50:20;;;;;;;4.55;2.00;;;;;;;;;;5021860;28;20037;-79
2023/01/10 06:52:46;;;;;;;11.07;2.40;;;;;;;;;;5037747;28;20086;-79
2023/01/10 06:55:11;;;;;;;5.95;2.15;;;;;;;;;;5021566;28;20036;-79
2023/01/10 06:57:37;;;;;;;7.38;1.95;;;;;;;;;;5037764;28;20398;-79
2023/01/10 07:00:07;;;;;;;6.85;2.30;;;;;;;;;;5055487;28;20033;-79
2023/01/10 07:02:32;;;;;;;7.55;2.53;;;;;;;;;;5055269;28;20035;-79
2023/01/10 07:04:58;;;;;;;11.40;2.15;;;;;;;;;;5055492;28;20037;-79
2023/01/10 07:07:23;;;;;;;6.05;2.00;;;;;;;;;;5037461;28;20025;-79
2023/01/10 07:09:49;;;;;;;11.40;2.65;;;;;;;;;;5037875;28;20087;-80
2023/01/10 07:12:14;;;;;;;6.07;2.20;;;;;;;;;;5055242;28;20144;-79
2023/01/10 07:14:39;;;;;;;4.72;1.92;;;;;;;;;;5055004;28;20499;-78
2023/01/10 07:17:05;;;;;;;7.90;2.15;;;;;;;;;;5037615;28;20476;-81
2023/01/10 07:19:30;;;;;;;7.85;2.55;;;;;;;;;;5037201;28;20376;-80
2023/01/10 07:21:56;;;;;;;4.72;1.67;;;;;;;;;;5037199;28;20487;-79
2023/01/10 07:24:21;;;;;;;6.43;1.80;;;;;;;;;;5055034;28;20029;-80
2023/01/10 07:26:46;;;;;;;6.43;2.08;;;;;;;;;;5055100;28;20071;-80
2023/01/10 07:29:12;;;;;;;6.30;1.67;;;;;;;;;;5055320;28;20037;-80
2023/01/10 07:31:37;;;;;;;5.03;1.80;;;;;;;;;;5037000;28;20395;-79
2023/01/10 07:34:03;;;;;;;5.13;2.10;;;;;;;;;;5055199;28;20025;-79
2023/01/10 07:36:28;;;;;;;8.05;2.15;;;;;;;;;;5020348;28;20445;-80
2023/01/10 07:38:53;;;;;;;6.30;1.98;;;;;;;;;;5055277;28;20037;-79
2023/01/10 07:41:19;;;;;;;4.95;1.65;;;;;;;;;;5054659;28;20113;-80
2023/01/10 07:43:44;;;;;;;6.80;1.67;;;;;;;;;;5054595;28;20027;-80
2023/01/10 07:46:11;;;;;;;5.50;1.95;;;;;;;;;;5054777;28;20033;-80
2023/01/10 07:48:37;;;;;;;5.53;2.15;;;;;;;;;;5053556;28;20468;-80
2023/01/10 07:51:03;;;;;;;6.63;1.98;;;;;;;;;;5036284;28;20032;-81
2023/01/10 07:53:29;;;;;;;10.90;2.53;;;;;;;;;;5036527;28;20119;-80
2023/01/10 07:55:58;;;;;;;7.05;1.90;;;;;;;;;;5036791;28;20116;-81
2023/01/10 07:58:23;;;;;;;6.85;1.90;;;;;;;;;;5019340;28;20479;-81
2023/01/10 08:00:49;;;;;;;7.63;1.95;;;;;;;;;;5054256;28;20028;-80
2023/01/10 08:03:15;;;;;;;7.30;1.95;;;;;;;;;;5054523;28;20112;-80
2023/01/10 08:05:41;;;;;;;4.10;2.00;;;;;;;;;;5036563;28;20029;-80
2023/01/10 08:08:11;;;;;;;7.50;2.17;;;;;;;;;;5036819;28;20044;-81
2023/01/10 08:10:38;;;;;;;4.70;1.80;;;;;;;;;;5036593;28;20025;-83
2023/01/10 08:13:03;;;;;;;6.13;1.83;;;;;;;;;;5036675;28;20052;-82
2023/01/10 08:15:29;;;;;;;5.03;2.10;;;;;;;;;;5055692;28;20534;-81
2023/01/10 08:17:58;;;;;;;5.45;1.80;;;;;;;;;;5074409;28;20028;-81
2023/01/10 08:20:24;;;;;;;8.07;2.17;;;;;;;;;;5073944;28;20028;-81
2023/01/10 08:22:49;;;;;;;6.30;1.98;;;;;;;;;;5039242;28;20136;-82
2023/01/10 08:25:15;;;;;;;9.10;1.85;;;;;;;;;;5039390;28;20025;-81
2023/01/10 08:27:40;;;;;;;8.82;1.98;;;;;;;;;;5073820;28;20032;-80
2023/01/10 08:30:06;;;;;;;7.15;2.10;;;;;;;;;;5055944;28;20024;-81
2023/01/10 08:32:32;;;;;;;7.82;2.20;;;;;;;;;;5056139;28;20032;-82
2023/01/10 08:34:58;;;;;;;5.68;1.88;;;;;;;;;;5074041;28;20482;-80
2023/01/10 08:37:23;;;;;;;4.82;1.90;;;;;;;;;;5035816;28;20094;-80
2023/01/10 08:39:48;;;;;;;5.70;2.00;;;;;;;;;;5068292;28;20032;-81
2023/01/10 08:42:15;;;;;;;8.23;2.05;;;;;;;;;;5039442;28;20429;-81
2023/01/10 08:44:41;;;;;;;6.70;2.10;;;;;;;;;;5055933;28;20029;-81
2023/01/10 08:47:06;;;;;;;6.82;2.20;;;;;;;;;;5055368;28;20025;-81
2023/01/10 08:49:32;;;;;;;9.43;2.00;;;;;;;;;;5073400;28;20089;-81
2023/01/10 08:51:57;;;;;;;10.35;2.13;;;;;;;;;;5072216;28;20523;-81
2023/01/10 08:54:22;;;;;;;7.65;2.03;;;;;;;;;;5038875;28;20033;-82
2023/01/10 08:56:48;;;;;;;5.38;2.13;;;;;;;;;;5056325;28;20032;-81
2023/01/10 08:59:14;;;;;;;5.47;1.83;;;;;;;;;;5055588;28;20039;-82
2023/01/10 09:01:39;;;;;;;6.22;2.10;;;;;;;;;;5073392;28;20037;-81
2023/01/10 09:04:05;;;;;;;6.25;2.03;;;;;;;;;;5056211;28;20032;-82
2023/01/10 09:06:30;;;;;;;9.90;2.20;;;;;;;;;;5055468;28;20029;-81
2023/01/10 09:08:56;;;;;;;6.40;2.35;;;;;;;;;;5055482;28;20029;-82
2023/01/10 09:11:21;;;;;;;7.07;2.10;;;;;;;;;;5055451;28;20029;-81
2023/01/10 09:13:50;;;;;;;6.22;1.88;;;;;;;;;;5073007;28;20049;-81
2023/01/10 09:16:16;;;;;;;7.75;2.28;;;;;;;;;;5073134;28;20082;-80
2023/01/10 09:18:41;;;;;;;5.53;2.03;;;;;;;;;;5073402;28;20103;-79
2023/01/10 09:21:06;;;;;;;6.75;2.13;;;;;;;;;;5055100;28;20033;-79
2023/01/10 09:23:32;;;;;;;5.25;2.15;;;;;;;;;;5055500;28;20060;-79
2023/01/10 09:25:59;;;;;;;8.75;2.50;;;;;;;;;;5073171;28;20115;-80
2023/01/10 09:28:24;;;;;;;8.60;2.15;;;;;;;;;;5055672;28;20444;-81
2023/01/10 09:30:50;;;;;;;12.57;2.65;;;;;;;;;;5055218;28;20029;-81
2023/01/10 09:33:15;;;;;;;6.90;2.10;;;;;;;;;;5055513;28;20043;-81
2023/01/10 09:35:41;;;;;;;5.38;2.17;;;;;;;;;;5055374;28;20040;-81
2023/01/10 09:38:11;;;;;;;5.57;1.83;;;;;;;;;;5055481;28;20060;-80
2023/01/10 09:40:36;;;;;;;7.18;2.35;;;;;;;;;;5055070;28;20028;-81
2023/01/10 09:43:26;;;;;;;5.93;2.25;;;;;;;;;;5073133;28;20063;-82
2023/01/10 09:46:05;;;;;;;5.45;1.83;;;;;;;;;;5073276;28;20025;-81
2023/01/10 09:49:01;;;;;;;6.47;2.00;;;;;;;;;;5055046;28;20044;-81
2023/01/10 09:51:34;;;;;;;6.75;1.75;;;;;;;;;;5055029;28;20379;-81
2023/01/10 09:54:04;;;;;;;6.88;2.22;;;;;;;;;;5054893;28;20021;-81
2023/01/10 09:56:30;;;;;;;8.40;2.30;;;;;;;;;;5054918;28;20482;-81
2023/01/10 09:58:56;;;;;;;7.30;2.22;;;;;;;;;;5054883;28;20032;-80
2023/01/10 10:01:26;;;;;;;10.57;2.67;;;;;;;;;;5038205;28;20054;-80
2023/01/10 10:04:01;;;;;;;4.90;2.33;;;;;;;;;;5037968;28;20063;-80
2023/01/10 10:06:26;;;;;;;6.07;2.17;;;;;;;;;;5073103;28;20027;-80
2023/01/10 10:08:52;;;;;;;4.75;1.90;;;;;;;;;;5055740;28;20033;-80
2023/01/10 10:11:33;;;;;;;6.05;2.50;;;;;;;;;;5073296;28;20089;-81
2023/01/10 10:14:27;;;;;;;7.00;2.20;;;;;;;;;;5072534;28;20507;-81
2023/01/10 10:17:08;;;;;;;5.38;2.10;;;;;;;;;;5054594;28;20094;-80
2023/01/10 10:19:58;;;;;;;6.05;2.30;;;;;;;;;;5072935;28;20468;-81
2023/01/10 10:22:52;;;;;;;7.13;2.20;;;;;;;;;;5058323;28;20052;-80
2023/01/10 10:25:50;;;;;;;8.02;1.90;;;;;;;;;;5033437;28;20030;-81
2023/01/10 10:28:49;;;;;;;8.25;2.30;;;;;;;;;;5076114;28;20103;-81
2023/01/10 10:31:37;;;;;;;8.85;2.92;;;;;;;;;;5058220;28;20108;-81
2023/01/10 10:34:13;;;;;;;6.78;2.20;;;;;;;;;;5058354;28;20024;-81
2023/01/10 10:36:45;;;;;;;8.82;2.30;;;;;;;;;;5059007;28;20397;-81
2023/01/10 10:39:17;;;;;;;5.32;2.10;;;;;;;;;;5076371;28;20032;-82
2023/01/10 10:41:44;;;;;;;8.88;2.03;;;;;;;;;;5076337;28;20078;-81
2023/01/10 10:44:35;;;;;;;10.32;2.38;;;;;;;;;;5057927;28;20020;-81
2023/01/10 10:47:01;;;;;;;7.13;2.08;;;;;;;;;;5041312;28;20032;-80
2023/01/10 10:49:37;;;;;;;7.22;2.72;;;;;;;;;;5058125;28;20035;-80
2023/01/10 10:52:11;;;;;;;6.97;2.30;;;;;;;;;;5058008;28;20074;-81
2023/01/10 10:54:37;;;;;;;8.10;2.65;;;;;;;;;;5041099;28;20056;-81
2023/01/10 10:57:02;;;;;;;12.60;2.15;;;;;;;;;;5058181;28;20364;-81
2023/01/10 10:59:28;;;;;;;6.93;2.03;;;;;;;;;;5076166;28;20033;-80
2023/01/10 11:01:53;;;;;;;9.15;2.63;;;;;;;;;;5040971;28;20024;-81
2023/01/10 11:04:21;;;;;;;9.50;2.60;;;;;;;;;;5057741;28;20052;-81
2023/01/10 11:06:50;;;;;;;7.03;2.28;;;;;;;;;;5057544;28;20489;-81
2023/01/10 11:09:39;;;;;;;9.50;2.40;;;;;;;;;;5076657;28;20032;-81
2023/01/10 11:12:05;;;;;;;5.72;2.05;;;;;;;;;;5060046;28;20035;-81
2023/01/10 11:14:46;;;;;;;5.80;2.08;;;;;;;;;;5057174;28;20045;-79
2023/01/10 11:17:26;;;;;;;6.97;2.20;;;;;;;;;;5075127;28;20070;-80
2023/01/10 11:20:04;;;;;;;8.88;2.88;;;;;;;;;;5057522;28;20024;-82
2023/01/10 11:22:36;;;;;;;9.00;2.35;;;;;;;;;;5075287;28;20024;-82
2023/01/10 11:25:02;;;;;;;6.30;2.00;;;;;;;;;;5057375;28;20020;-81
2023/01/10 11:27:47;;;;;;;9.48;2.40;;;;;;;;;;5057407;28;20107;-81
2023/01/10 11:30:24;;;;;;;7.82;2.15;;;;;;;;;;5075005;28;20421;-80
2023/01/10 11:33:05;;;;;;;8.10;2.90;;;;;;;;;;5073985;28;20025;-78
2023/01/10 11:35:35;;;;;;;7.63;2.35;;;;;;;;;;5057220;28;20024;-78
2023/01/10 11:38:13;;;;;;;9.07;2.72;;;;;;;;;;5056966;28;20085;-79
2023/01/10 11:41:09;;;;;;;8.25;2.33;;;;;;;;;;5056841;28;20540;-79
2023/01/10 11:43:37;;;;;;;5.90;2.30;;;;;;;;;;5056734;28;20078;-79
2023/01/10 11:46:06;;;;;;;5.25;2.28;;;;;;;;;;5057034;28;20025;-79
2023/01/10 11:49:02;;;;;;;6.15;2.20;;;;;;;;;;5056821;28;20368;-81
2023/01/10 11:51:31;;;;;;;6.05;2.28;;;;;;;;;;5067061;28;20171;-81
2023/01/10 11:53:58;;;;;;;8.43;2.40;;;;;;;;;;5073479;28;20063;-80
2023/01/10 11:56:27;;;;;;;11.80;2.92;;;;;;;;;;5057504;28;20414;-80
2023/01/10 11:58:53;;;;;;;5.60;2.10;;;;;;;;;;5073471;28;20021;-79
2023/01/10 12:01:29;;;;;;;9.00;2.40;;;;;;;;;;5056401;28;20039;-80
2023/01/10 12:03:55;;;;;;;8.27;2.42;;;;;;;;;;5074296;28;20463;-80
2023/01/10 12:06:20;;;;;;;7.13;1.95;;;;;;;;;;5074189;28;20033;-80
2023/01/10 12:08:46;;;;;;;5.43;2.22;;;;;;;;;;5074674;28;20033;-82
2023/01/10 12:11:26;;;;;;;6.53;2.10;;;;;;;;;;5056518;28;20024;-81
2023/01/10 12:13:54;;;;;;;8.32;2.83;;;;;;;;;;5072901;28;20398;-80
2023/01/10 12:16:26;;;;;;;9.60;2.22;;;;;;;;;;5074143;28;20035;-80
2023/01/10 12:18:56;;;;;;;7.05;2.42;;;;;;;;;;5074414;28;20025;-80
2023/01/10 12:21:40;;;;;;;6.60;2.42;;;;;;;;;;5056298;28;20052;-80
2023/01/10 12:24:28;;;;;;;5.60;2.22;;;;;;;;;;5056043;28;20028;-81
2023/01/10 12:26:54;;;;;;;6.70;2.38;;;;;;;;;;5074326;28;20021;-81
2023/01/10 12:29:28;;;;;;;5.47;2.17;;;;;;;;;;5056352;28;20413;-81
2023/01/10 12:31:55;;;;;;;6.00;2.00;;;;;;;;;;5056590;28;20479;-80
2023/01/10 12:34:26;;;;;;;11.38;3.30;;;;;;;;;;5056324;28;20028;-80
2023/01/10 12:37:04;;;;;;;5.93;2.20;;;;;;;;;;5056428;28;20155;-80
2023/01/10 12:39:35;;;;;;;7.40;2.30;;;;;;;;;;5056180;28;20060;-79
2023/01/10 12:44:57;;;;;;;16.90;3.08;;;;;;;;;;5073604;28;20034;-79
2023/01/10 12:47:42;;;;;;;11.45;2.50;;;;;;;;;;5073538;28;20487;-79
2023/01/10 12:50:26;;;;;;;9.48;2.92;;;;;;;;;;5039427;28;20083;-79
2023/01/10 12:52:51;;;;;;;;;;;;;;;;;;5056829;28;20395;-76
2023/01/10 12:55:21;;;;;;;4.45;2.17;;;;;;;;;;5073551;28;19919;-79
2023/01/10 12:57:52;;;;;;;7.78;2.88;;;;;;;;;;5055130;28;20039;-79
2023/01/10 13:00:23;;;;;;;5.28;2.35;;;;;;;;;;5038597;28;20028;-78
2023/01/10 13:02:51;;;;;;;7.00;2.35;;;;;;;;;;5071785;28;20161;-78
2023/01/10 13:05:19;;;;;;;5.82;2.55;;;;;;;;;;5054873;28;20453;-78
2023/01/10 13:07:46;;;;;;;8.60;2.17;;;;;;;;;;5054664;28;20515;-77
2023/01/10 13:10:16;;;;;;;6.43;2.35;;;;;;;;;;5038166;28;20101;-79
2023/01/10 13:12:45;;;;;;;7.57;2.25;;;;;;;;;;5054698;28;20024;-78
2023/01/10 13:15:26;;;;;;;8.30;2.42;;;;;;;;;;5037783;28;20090;-78
2023/01/10 13:18:14;;;;;;;6.68;2.35;;;;;;;;;;5054837;28;20120;-79
2023/01/10 13:20:41;;;;;;;5.00;2.30;;;;;;;;;;5072588;28;20024;-79
2023/01/10 13:23:17;;;;;;;6.72;2.67;;;;;;;;;;5054610;28;20024;-79
2023/01/10 13:25:53;;;;;;;9.73;2.70;;;;;;;;;;5072089;28;20100;-79
2023/01/10 13:28:22;;;;;;;7.15;2.55;;;;;;;;;;5071484;28;20070;-79
2023/01/10 13:30:56;;;;;;;7.10;2.10;;;;;;;;;;5038069;28;20056;-79
2023/01/10 13:33:23;;;;;;;;;;;;;;;;;;5055231;28;20031;-77
2023/01/10 13:35:50;;;;;;;6.35;2.42;;;;;;;;;;5038051;28;19920;-79
2023/01/10 13:38:26;;;;;;;8.77;1.95;;;;;;;;;;5054607;28;20482;-79
2023/01/10 13:40:55;;;;;;;6.25;2.13;;;;;;;;;;5037732;28;20027;-79
2023/01/10 13:43:37;;;;;;;4.88;1.80;;;;;;;;;;5054592;28;20379;-80
2023/01/10 13:46:17;;;;;;;10.63;2.50;;;;;;;;;;5054559;28;20028;-80
2023/01/10 13:49:08;;;;;;;6.95;2.33;;;;;;;;;;5054670;28;20028;-81
2023/01/10 13:51:35;;;;;;;6.35;2.30;;;;;;;;;;5054236;28;20035;-80
2023/01/10 13:54:15;;;;;;;5.47;2.10;;;;;;;;;;5072183;28;20145;-79
2023/01/10 13:56:42;;;;;;;5.55;2.28;;;;;;;;;;5073554;28;20078;-79
2023/01/10 14:04:53;;;;;;;5.10;2.00;;;;;;;;;;5076091;28;20459;-79
2023/01/10 14:07:26;;;;;;;3.88;1.83;;;;;;;;;;5058146;28;20495;-79
2023/01/10 14:09:58;;;;;;;4.50;2.13;;;;;;;;;;5058071;28;20020;-80
2023/01/10 14:12:38;;;;;;;5.80;2.08;;;;;;;;;;5058130;28;20036;-79
2023/01/10 14:15:28;;;;;;;4.78;2.00;;;;;;;;;;5075667;28;20383;-80
2023/01/10 14:18:00;;;;;;;6.40;2.00;;;;;;;;;;5057857;28;20032;-79
2023/01/10 14:20:25;;;;;;;5.88;2.72;;;;;;;;;;5058003;28;20020;-79
2023/01/10 14:23:15;;;;;;;6.03;2.30;;;;;;;;;;5041266;28;20039;-79
2023/01/10 14:25:41;;;;;;;8.48;1.95;;;;;;;;;;5075844;28;20368;-79
2023/01/10 14:28:20;;;;;;;9.15;2.30;;;;;;;;;;5073779;28;20032;-79
2023/01/10 14:31:00;;;;;;;7.53;2.50;;;;;;;;;;5057794;28;20494;-79
2023/01/10 14:33:26;;;;;;;6.28;1.92;;;;;;;;;;5040923;28;20059;-80
2023/01/10 14:35:55;;;;;;;5.90;2.00;;;;;;;;;;5040962;28;20441;-80
2023/01/10 14:38:26;;;;;;;4.10;2.10;;;;;;;;;;5057801;28;20055;-80
2023/01/10 14:40:58;;;;;;;6.68;1.77;;;;;;;;;;5057516;28;20062;-79
2023/01/10 14:43:26;;;;;;;5.32;2.20;;;;;;;;;;5058068;28;20387;-82
2023/01/10 14:46:13;;;;;;;4.97;1.75;;;;;;;;;;5057621;28;20024;-81
2023/01/10 14:48:52;;;;;;;4.90;1.92;;;;;;;;;;5040875;28;20115;-78
2023/01/10 14:51:29;;;;;;;4.40;1.90;;;;;;;;;;5057549;28;20035;-80
2023/01/10 14:54:11;;;;;;;6.22;2.63;;;;;;;;;;5074130;28;20056;-79
2023/01/10 14:56:44;;;;;;;6.10;1.80;;;;;;;;;;5056421;28;20111;-79
2023/01/10 14:59:16;;;;;;;5.95;1.85;;;;;;;;;;5056502;28;20115;-79
2023/01/10 15:01:42;;;;;;;5.95;1.77;;;;;;;;;;5057187;28;20028;-79
2023/01/10 15:04:20;;;;;;;8.73;2.15;;;;;;;;;;5057186;28;20016;-78
2023/01/10 15:07:09;;;;;;;5.40;1.70;;;;;;;;;;5040298;28;20115;-79
2023/01/10 15:09:34;;;;;;;4.10;1.73;;;;;;;;;;5074974;28;20437;-79
2023/01/10 15:12:02;;;;;;;5.05;2.05;;;;;;;;;;5074897;28;20040;-79
2023/01/10 15:14:28;;;;;;;3.78;1.73;;;;;;;;;;5056732;28;20048;-79
2023/01/10 15:16:58;;;;;;;7.40;2.20;;;;;;;;;;5040081;28;20032;-78